Time;durP1;ratioP1;P1;durP2;ratioP2;P2;SDS_P1;SDS_P2;PMS_P1;PMS_P2;Temp;Humidity;BMP_temperature;BMP_pressure;BME280_temperature;BME280_humidity;BME280_pressure;Samples;Min_cycle;Max_cycle;Signal;HPM_P1;HPM_P2
2022/06/22 00:02:07;;;;;;;7.77;7.07;;;23.00;99.90;;;;;;4974015;28;20439;-61
2022/06/22 00:04:51;;;;;;;7.70;7.10;;;22.80;99.90;;;;;;4971322;28;20502;-61
2022/06/22 00:07:33;;;;;;;8.00;7.20;;;22.80;99.90;;;;;;4971175;28;20893;-61
2022/06/22 00:10:28;;;;;;;8.03;7.43;;;22.80;99.90;;;;;;4971197;28;20463;-61
2022/06/22 00:12:56;;;;;;;7.53;6.83;;;23.10;99.90;;;;;;4970400;28;20435;-61
2022/06/22 00:15:36;;;;;;;7.67;7.10;;;22.90;99.90;;;;;;4973178;28;20944;-61
2022/06/22 00:18:18;;;;;;;7.73;7.10;;;22.80;99.90;;;;;;4963315;28;20840;-61
2022/06/22 00:20:49;;;;;;;8.67;7.87;;;22.80;99.90;;;;;;4966153;28;20479;-61
2022/06/22 00:23:15;;;;;;;8.67;7.90;;;22.80;99.90;;;;;;4972657;28;20443;-60
2022/06/22 00:25:41;;;;;;;8.87;7.97;;;22.80;99.90;;;;;;4972928;28;20506;-60
2022/06/22 00:28:30;;;;;;;8.97;8.27;;;22.70;99.90;;;;;;4970431;28;20181;-61
2022/06/22 00:31:21;;;;;;;8.40;7.80;;;22.60;99.90;;;;;;4972497;28;20487;-60
2022/06/22 00:34:04;;;;;;;9.20;8.50;;;22.50;99.90;;;;;;4966456;28;20455;-61
2022/06/22 00:36:38;;;;;;;10.70;9.05;;;22.50;99.90;;;;;;4965819;28;20503;-60
2022/06/22 00:39:15;;;;;;;8.40;7.78;;;22.40;99.90;;;;;;4971035;28;20203;-60
2022/06/22 00:41:44;;;;;;;7.82;7.22;;;22.30;99.90;;;;;;4968001;28;20242;-60
2022/06/22 00:44:12;;;;;;;8.63;7.82;;;22.30;99.90;;;;;;4972811;28;20184;-60
2022/06/22 00:46:43;;;;;;;9.13;7.90;;;22.30;99.90;;;;;;4964226;28;20189;-60
2022/06/22 00:49:17;;;;;;;8.18;7.57;;;22.30;99.90;;;;;;4972037;28;20192;-60
2022/06/22 00:51:43;;;;;;;9.32;8.60;;;22.30;99.90;;;;;;4975050;28;20741;-60
2022/06/22 00:54:17;;;;;;;9.23;8.43;;;22.40;99.90;;;;;;4974915;28;20398;-60
2022/06/22 00:56:55;;;;;;;8.40;7.80;;;22.40;99.90;;;;;;4970978;28;20194;-60
2022/06/22 00:59:59;;;;;;;9.35;8.35;;;22.40;99.90;;;;;;4970651;28;20226;-60
2022/06/22 01:02:45;;;;;;;8.60;8.00;;;22.40;99.90;;;;;;4966588;28;20609;-61
2022/06/22 01:05:20;;;;;;;9.23;8.50;;;22.30;99.90;;;;;;4966334;28;20435;-60
2022/06/22 01:07:51;;;;;;;8.60;7.90;;;22.20;99.90;;;;;;4970819;28;20732;-61
2022/06/22 01:10:23;;;;;;;8.80;8.10;;;22.20;99.90;;;;;;4974990;28;20514;-61
2022/06/22 01:12:54;;;;;;;8.63;7.97;;;22.30;99.90;;;;;;4963317;28;20451;-61
2022/06/22 01:15:30;;;;;;;8.40;7.70;;;22.30;99.90;;;;;;4972539;28;20446;-61
2022/06/22 01:18:06;;;;;;;10.00;8.70;;;22.30;99.90;;;;;;4965073;28;20505;-60
2022/06/22 01:20:55;;;;;;;9.50;8.90;;;22.30;99.90;;;;;;4970085;28;20475;-61
2022/06/22 01:23:45;;;;;;;8.13;7.40;;;22.30;99.90;;;;;;4968177;28;20439;-60
2022/06/22 01:26:35;;;;;;;8.57;7.97;;;22.30;99.90;;;;;;4968691;28;20440;-60
2022/06/22 01:29:10;;;;;;;9.50;8.70;;;22.30;99.90;;;;;;4970313;28;20526;-60
2022/06/22 01:31:41;;;;;;;8.47;7.77;;;22.30;99.90;;;;;;4969415;28;20208;-60
2022/06/22 01:34:15;;;;;;;8.70;8.00;;;22.20;99.90;;;;;;4965443;28;20814;-61
2022/06/22 01:36:40;;;;;;;9.13;8.43;;;22.20;99.90;;;;;;4971256;28;20188;-61
2022/06/22 01:39:09;;;;;;;8.70;8.10;;;22.30;99.90;;;;;;4972853;28;20486;-60
2022/06/22 01:41:45;;;;;;;8.33;7.63;;;22.30;99.90;;;;;;4972864;28;20198;-61
2022/06/22 01:44:29;;;;;;;9.33;8.43;;;22.40;99.90;;;;;;4968631;28;20467;-61
2022/06/22 01:47:35;;;;;;;8.25;7.65;;;22.30;99.90;;;;;;4970544;28;20454;-61
2022/06/22 01:50:25;;;;;;;8.98;8.27;;;22.20;99.90;;;;;;4971117;28;20207;-60
2022/06/22 01:53:16;;;;;;;8.70;8.00;;;22.20;99.90;;;;;;4969727;28;20194;-61
2022/06/22 01:55:52;;;;;;;9.57;8.65;;;22.00;99.90;;;;;;4971757;28;20180;-61
2022/06/22 01:58:17;;;;;;;9.25;8.55;;;22.00;99.90;;;;;;4968799;28;20188;-61
2022/06/22 02:00:47;;;;;;;8.30;7.70;;;22.00;99.90;;;;;;4969584;28;20716;-61
2022/06/22 02:03:22;;;;;;;8.95;8.13;;;22.10;99.90;;;;;;4966638;28;20303;-60
2022/06/22 02:05:58;;;;;;;8.87;8.13;;;22.10;99.90;;;;;;4972584;28;20262;-61
2022/06/22 02:08:36;;;;;;;8.80;8.10;;;22.00;99.90;;;;;;4973146;28;20435;-61
2022/06/22 02:11:05;;;;;;;8.80;8.10;;;22.00;99.90;;;;;;4963155;28;20474;-60
2022/06/22 02:13:47;;;;;;;7.83;7.27;;;22.20;99.90;;;;;;4969672;28;20188;-60
2022/06/22 02:16:40;;;;;;;8.30;7.63;;;22.30;99.90;;;;;;4967867;28;21128;-60
2022/06/22 02:19:12;;;;;;;9.57;8.05;;;22.30;99.90;;;;;;4969093;28;20463;-60
2022/06/22 02:21:38;;;;;;;9.17;8.47;;;22.40;99.90;;;;;;4970068;28;20572;-60
2022/06/22 02:24:29;;;;;;;9.17;8.50;;;22.60;99.90;;;;;;4970844;28;20438;-59
2022/06/22 02:27:15;;;;;;;9.43;8.70;;;22.50;99.90;;;;;;4968930;28;20212;-60
2022/06/22 02:29:48;;;;;;;8.10;7.40;;;22.40;99.90;;;;;;4970117;28;20547;-61
2022/06/22 02:32:21;;;;;;;9.10;8.40;;;22.30;99.90;;;;;;4968745;28;20455;-60
2022/06/22 02:34:49;;;;;;;8.45;7.68;;;22.30;99.90;;;;;;4967546;28;20800;-59
2022/06/22 02:37:18;;;;;;;8.98;8.18;;;22.40;99.90;;;;;;4969499;28;20192;-60
2022/06/22 02:39:47;;;;;;;8.85;8.13;;;22.40;99.90;;;;;;4969765;28;20228;-60
2022/06/22 02:44:59;;;;;;;8.77;8.03;;;22.40;99.90;;;;;;4977358;28;20437;-60
2022/06/22 02:47:31;;;;;;;9.20;8.38;;;22.50;99.90;;;;;;4966663;28;20566;-61
2022/06/22 02:50:34;;;;;;;10.65;9.70;;;22.40;99.90;;;;;;4971585;28;20212;-59
2022/06/22 02:53:23;;;;;;;9.33;8.63;;;22.30;99.90;;;;;;4974811;28;20188;-60
2022/06/22 02:55:50;;;;;;;9.30;8.60;;;22.20;99.90;;;;;;4967603;28;20471;-60
2022/06/22 02:58:32;;;;;;;8.85;8.25;;;22.00;99.90;;;;;;4968561;28;20724;-60
2022/06/22 03:01:13;;;;;;;9.15;8.35;;;22.00;99.90;;;;;;4968728;28;20231;-60
2022/06/22 03:03:41;;;;;;;8.68;8.07;;;22.10;99.90;;;;;;4968143;28;20195;-60
2022/06/22 03:06:10;;;;;;;10.02;9.30;;;22.20;99.90;;;;;;4973275;28;20184;-61
2022/06/22 03:08:37;;;;;;;9.65;9.00;;;22.10;99.90;;;;;;4973516;28;21025;-60
2022/06/22 03:11:08;;;;;;;9.68;8.90;;;22.00;99.90;;;;;;4973237;28;20704;-60
2022/06/22 03:13:44;;;;;;;9.70;8.90;;;22.00;99.90;;;;;;4971920;28;20202;-60
2022/06/22 03:16:32;;;;;;;9.38;8.68;;;22.10;99.90;;;;;;4973299;28;20192;-60
2022/06/22 03:19:01;;;;;;;9.95;9.15;;;22.10;99.90;;;;;;4970694;28;20192;-61
2022/06/22 03:21:28;;;;;;;10.88;9.77;;;22.00;99.90;;;;;;4972225;28;20286;-61
2022/06/22 03:24:12;;;;;;;11.88;9.35;;;22.40;99.90;;;;;;4973283;28;20197;-61
2022/06/22 03:26:42;;;;;;;11.68;10.15;;;22.00;99.90;;;;;;4967640;28;20201;-61
2022/06/22 03:29:30;;;;;;;10.23;9.32;;;22.00;99.90;;;;;;4973534;28;20764;-60
2022/06/22 03:32:17;;;;;;;10.05;9.25;;;22.00;99.90;;;;;;4973068;28;20195;-60
2022/06/22 03:34:50;;;;;;;10.18;9.27;;;22.10;99.90;;;;;;4965595;28;20388;-59
2022/06/22 03:37:19;;;;;;;10.52;9.73;;;21.90;99.90;;;;;;4971072;28;20188;-61
2022/06/22 03:39:51;;;;;;;10.50;9.70;;;21.80;99.90;;;;;;4974146;28;20626;-60
2022/06/22 03:42:35;;;;;;;10.48;9.77;;;21.80;99.90;;;;;;4969307;28;20208;-61
2022/06/22 03:45:26;;;;;;;10.00;9.10;;;21.80;99.90;;;;;;4968879;28;20670;-60
2022/06/22 03:48:12;;;;;;;9.95;9.15;;;21.80;99.90;;;;;;4970714;28;20650;-60
2022/06/22 03:51:12;;;;;;;11.10;10.20;;;21.70;99.90;;;;;;4972909;28;20795;-59
2022/06/22 03:54:15;;;;;;;11.10;10.10;;;21.60;99.90;;;;;;4969767;28;20298;-59
2022/06/22 03:56:47;;;;;;;9.52;8.73;;;21.50;99.90;;;;;;4972277;28;20200;-60
2022/06/22 03:59:13;;;;;;;11.35;9.73;;;21.50;99.90;;;;;;4969400;28;20221;-60
2022/06/22 04:01:40;;;;;;;9.97;9.27;;;21.60;99.90;;;;;;4972833;28;20200;-60
2022/06/22 04:04:07;;;;;;;11.55;10.45;;;21.50;99.90;;;;;;4969102;28;20180;-59
2022/06/22 04:06:40;;;;;;;11.65;10.60;;;21.50;99.90;;;;;;4972975;28;20574;-60
2022/06/22 04:09:13;;;;;;;10.05;9.20;;;21.50;99.90;;;;;;4970629;28;20187;-58
2022/06/22 04:11:52;;;;;;;10.00;9.30;;;21.50;99.90;;;;;;4964195;28;20200;-66
2022/06/22 04:14:56;;;;;;;11.00;10.10;;;21.60;99.90;;;;;;4965134;28;20187;-67
2022/06/22 04:17:38;;;;;;;11.02;10.15;;;21.70;99.90;;;;;;4963635;28;20224;-67
2022/06/22 04:20:15;;;;;;;9.80;9.10;;;21.80;99.90;;;;;;4971581;28;20310;-66
2022/06/22 04:22:44;;;;;;;11.30;10.40;;;21.90;99.90;;;;;;4970406;28;20191;-71
2022/06/22 04:25:24;;;;;;;10.75;9.85;;;22.00;99.90;;;;;;4971516;28;20180;-71
2022/06/22 04:27:52;;;;;;;10.35;9.55;;;22.10;99.90;;;;;;4968060;28;20192;-72
2022/06/22 04:30:26;;;;;;;11.15;9.95;;;22.10;99.90;;;;;;4972023;28;20235;-72
2022/06/22 04:33:26;;;;;;;10.40;9.60;;;22.10;99.90;;;;;;4968672;28;20184;-68
2022/06/22 04:36:30;;;;;;;10.75;9.90;;;22.20;99.90;;;;;;4965819;28;20188;-69
2022/06/22 04:39:14;;;;;;;10.50;9.50;;;22.30;99.90;;;;;;4971055;28;20216;-67
2022/06/22 04:41:41;;;;;;;11.68;10.60;;;22.30;99.90;;;;;;4963919;28;20239;-63
2022/06/22 04:44:24;;;;;;;10.27;9.47;;;22.20;99.90;;;;;;4970875;28;20180;-70
2022/06/22 04:46:53;;;;;;;9.60;8.80;;;22.20;99.90;;;;;;4971164;28;20456;-66
2022/06/22 04:49:27;;;;;;;9.60;8.90;;;22.40;99.90;;;;;;4969285;28;20196;-68
2022/06/22 04:52:04;;;;;;;9.50;8.80;;;22.50;99.90;;;;;;4966451;28;20476;-64
2022/06/22 04:54:33;;;;;;;9.67;8.87;;;22.60;99.90;;;;;;4972332;28;20569;-67
2022/06/22 04:57:05;;;;;;;10.60;9.80;;;22.70;99.90;;;;;;4963783;28;20462;-68
2022/06/22 04:59:32;;;;;;;10.60;9.70;;;22.70;99.90;;;;;;4977811;28;20462;-68
2022/06/22 05:02:09;;;;;;;10.93;10.03;;;22.70;99.90;;;;;;4969566;28;20442;-65
2022/06/22 05:04:39;;;;;;;11.27;10.37;;;22.70;99.90;;;;;;4967266;28;20462;-60
2022/06/22 05:07:43;;;;;;;14.33;10.67;;;22.70;99.90;;;;;;4963771;28;20435;-60
2022/06/22 05:10:18;;;;;;;11.00;9.97;;;22.70;99.90;;;;;;4968350;28;20859;-60
2022/06/22 05:12:49;;;;;;;10.80;9.80;;;22.80;99.90;;;;;;4966171;28;20443;-61
2022/06/22 05:15:37;;;;;;;10.23;9.43;;;22.90;99.90;;;;;;4968635;28;20459;-60
2022/06/22 05:18:11;;;;;;;11.17;10.30;;;23.00;99.90;;;;;;4967718;28;20463;-59
2022/06/22 05:20:46;;;;;;;11.13;10.23;;;23.10;99.90;;;;;;4976931;28;20482;-59
2022/06/22 05:23:13;;;;;;;11.00;10.10;;;22.90;99.90;;;;;;4970601;28;20518;-59
2022/06/22 05:25:43;;;;;;;12.10;11.00;;;23.10;99.90;;;;;;4970836;28;20925;-59
2022/06/22 05:28:13;;;;;;;11.30;10.33;;;23.10;99.90;;;;;;4966145;28;20975;-50
2022/06/22 05:30:52;;;;;;;11.20;10.10;;;23.20;99.90;;;;;;4969698;28;20847;-50
2022/06/22 05:33:22;;;;;;;12.27;11.17;;;23.40;99.90;;;;;;4961932;28;20464;-68
2022/06/22 05:35:53;;;;;;;12.53;11.43;;;23.50;99.90;;;;;;4970961;28;20451;-68
2022/06/22 05:38:22;;;;;;;11.30;10.33;;;23.60;99.90;;;;;;4969135;28;20447;-68
2022/06/22 05:40:49;;;;;;;11.30;10.30;;;23.70;99.90;;;;;;4965207;28;20803;-68
2022/06/22 05:43:15;;;;;;;10.77;9.90;;;23.80;99.90;;;;;;4969699;28;20451;-74
2022/06/22 05:45:54;;;;;;;11.27;10.27;;;23.80;99.90;;;;;;4968054;28;20451;-72
2022/06/22 05:48:24;;;;;;;11.13;10.17;;;23.80;99.90;;;;;;4969852;28;20968;-77
2022/06/22 05:50:58;;;;;;;13.07;11.77;;;23.90;99.90;;;;;;4965088;28;20475;-76
2022/06/22 05:53:41;;;;;;;10.90;9.87;;;23.80;99.90;;;;;;4964015;28;20496;-72
2022/06/22 05:56:22;;;;;;;11.53;10.63;;;23.90;99.90;;;;;;4964490;28;20451;-71
2022/06/22 05:59:06;;;;;;;12.20;11.20;;;24.00;99.90;;;;;;4959982;28;20979;-71
2022/06/22 06:01:44;;;;;;;11.70;10.57;;;24.20;99.90;;;;;;4968390;28;20467;-71
2022/06/22 06:04:26;;;;;;;10.30;9.53;;;24.30;99.90;;;;;;4958603;28;20448;-72
2022/06/22 06:06:54;;;;;;;11.00;10.20;;;24.40;99.90;;;;;;4965701;28;20953;-70
2022/06/22 06:09:23;;;;;;;11.40;10.40;;;24.20;99.90;;;;;;4968406;28;20451;-70
2022/06/22 06:11:57;;;;;;;10.97;10.10;;;23.90;99.90;;;;;;4970704;28;20482;-69
2022/06/22 06:14:31;;;;;;;11.03;10.03;;;24.00;99.90;;;;;;4967107;28;20444;-70
2022/06/22 06:17:01;;;;;;;11.63;10.70;;;24.00;99.90;;;;;;4964070;28;20870;-72
2022/06/22 06:19:33;;;;;;;10.70;9.80;;;23.90;99.90;;;;;;4960603;28;20949;-68
2022/06/22 06:22:04;;;;;;;11.37;10.20;;;23.70;99.90;;;;;;4968278;28;20463;-72
2022/06/22 06:27:38;;;;;;;11.77;10.77;;;23.80;99.90;;;;;;4968834;28;20462;-69
2022/06/22 06:30:19;;;;;;;11.80;10.90;;;23.70;99.90;;;;;;4969864;28;20478;-68
2022/06/22 06:32:50;;;;;;;10.63;9.73;;;23.60;99.90;;;;;;4967212;28;20506;-63
2022/06/22 06:35:31;;;;;;;10.93;10.00;;;23.60;99.90;;;;;;4967157;28;20630;-64
2022/06/22 06:38:23;;;;;;;10.20;9.27;;;23.70;99.90;;;;;;4958510;28;20450;-63
2022/06/22 06:41:11;;;;;;;9.43;8.73;;;23.70;99.90;;;;;;4962157;28;20478;-70
2022/06/22 06:43:45;;;;;;;9.83;9.00;;;23.90;99.90;;;;;;4970686;28;20972;-66
2022/06/22 06:46:17;;;;;;;10.83;9.93;;;23.90;99.90;;;;;;4972279;28;20488;-67
2022/06/22 06:48:49;;;;;;;9.87;8.97;;;24.00;99.90;;;;;;4969504;28;21071;-73
2022/06/22 06:51:16;;;;;;;11.23;10.30;;;24.00;99.90;;;;;;4972106;28;20554;-69
2022/06/22 06:53:52;;;;;;;10.60;9.80;;;24.00;99.90;;;;;;5013346;23;20489;-64
2022/06/22 06:56:40;;;;;;;12.07;10.88;;;23.90;99.90;;;;;;5013382;28;20446;-65
2022/06/22 06:59:13;;;;;;;11.37;10.30;;;23.80;99.90;;;;;;5007431;28;20576;-68
2022/06/22 07:01:44;;;;;;;11.00;10.20;;;23.90;99.90;;;;;;4993991;28;20466;-68
2022/06/22 07:04:16;;;;;;;9.93;9.20;;;23.90;99.90;;;;;;4980047;28;20439;-66
2022/06/22 07:06:41;;;;;;;11.77;10.67;;;23.90;99.90;;;;;;4992330;28;20493;-68
2022/06/22 07:09:31;;;;;;;11.30;10.50;;;23.80;99.90;;;;;;4984980;28;20438;-67
2022/06/22 07:12:25;;;;;;;8.90;8.00;;;23.80;99.90;;;;;;4989396;28;20191;-62
2022/06/22 07:14:52;;;;;;;9.97;9.17;;;23.80;99.90;;;;;;4992356;28;20459;-64
2022/06/22 07:17:21;;;;;;;8.37;7.17;;;24.00;99.90;;;;;;4983858;28;20457;-66
2022/06/22 07:19:58;;;;;;;8.17;7.57;;;23.90;99.90;;;;;;4990003;28;20270;-65
2022/06/22 07:22:42;;;;;;;10.60;9.70;;;24.50;99.90;;;;;;4986650;28;20526;-66
2022/06/22 07:25:22;;;;;;;11.73;10.63;;;23.90;99.90;;;;;;4986988;28;21197;-63
2022/06/22 07:28:10;;;;;;;11.60;10.70;;;23.90;99.90;;;;;;4988123;28;20442;-66
2022/06/22 07:30:52;;;;;;;11.37;10.07;;;23.70;99.90;;;;;;4988444;28;21234;-65
2022/06/22 07:33:30;;;;;;;8.87;8.17;;;23.80;99.90;;;;;;4982720;28;20442;-62
2022/06/22 07:35:58;;;;;;;10.97;10.07;;;23.70;99.90;;;;;;4991584;28;20453;-66
2022/06/22 07:38:27;;;;;;;10.97;10.17;;;23.50;99.90;;;;;;4990367;28;20442;-67
2022/06/22 07:43:38;;;;;;;11.00;9.90;;;23.60;99.90;;;;;;4980739;28;20802;-66
2022/06/22 07:46:06;;;;;;;10.87;10.00;;;23.60;99.90;;;;;;4991394;28;20525;-65
2022/06/22 07:48:39;;;;;;;11.07;10.13;;;23.50;99.90;;;;;;4987413;28;20242;-65
2022/06/22 07:51:08;;;;;;;10.77;9.77;;;23.40;99.90;;;;;;4992822;28;20498;-64
2022/06/22 07:53:47;;;;;;;10.67;9.33;;;23.40;99.90;;;;;;4984669;28;20468;-66
2022/06/22 07:56:21;;;;;;;10.80;9.77;;;23.20;99.90;;;;;;4990346;28;20823;-69
2022/06/22 07:58:57;;;;;;;10.83;9.93;;;23.20;99.90;;;;;;4987146;28;20446;-64
2022/06/22 08:01:29;;;;;;;10.80;9.70;;;23.20;99.90;;;;;;4992136;28;20469;-62
2022/06/22 08:04:07;;;;;;;10.50;9.40;;;23.30;99.90;;;;;;4990991;28;20433;-66
2022/06/22 08:06:44;;;;;;;10.67;9.73;;;23.40;99.90;;;;;;4987128;28;20478;-64
2022/06/22 08:09:21;;;;;;;10.67;9.80;;;23.50;99.90;;;;;;4989917;28;20427;-65
2022/06/22 08:11:59;;;;;;;10.50;9.50;;;23.60;99.90;;;;;;4991313;28;20450;-65
2022/06/22 08:14:28;;;;;;;10.27;9.47;;;23.80;99.90;;;;;;4980095;28;20493;-68
2022/06/22 08:17:00;;;;;;;11.43;10.33;;;23.80;99.90;;;;;;4988876;28;20434;-60
2022/06/22 08:19:28;;;;;;;12.00;9.70;;;23.90;99.90;;;;;;4981188;28;20474;-60
2022/06/22 08:21:58;;;;;;;10.40;9.60;;;23.90;99.90;;;;;;4990493;28;20445;-60
2022/06/22 08:24:25;;;;;;;11.33;10.43;;;23.90;99.90;;;;;;4979469;28;20505;-60
2022/06/22 08:26:54;;;;;;;10.93;9.87;;;23.90;99.90;;;;;;4988999;28;20782;-60
2022/06/22 08:29:24;;;;;;;11.13;10.13;;;23.90;99.90;;;;;;4989018;28;20711;-57
2022/06/22 08:32:02;;;;;;;10.30;9.30;;;23.90;99.90;;;;;;4992142;28;21031;-58
2022/06/22 08:34:33;;;;;;;10.93;9.47;;;23.90;99.40;;;;;;4979170;28;20481;-68
2022/06/22 08:37:21;;;;;;;10.50;9.60;;;23.90;99.10;;;;;;4989846;28;20481;-67
2022/06/22 08:39:53;;;;;;;9.80;9.00;;;23.90;99.40;;;;;;4978702;28;20557;-69
2022/06/22 08:42:50;;;;;;;10.53;9.10;;;23.80;99.90;;;;;;4990478;28;20439;-66
2022/06/22 08:45:44;;;;;;;11.90;9.30;;;23.90;99.90;;;;;;4979622;28;20454;-68
2022/06/22 08:48:41;;;;;;;11.60;8.77;;;23.70;99.50;;;;;;4982864;28;20438;-63
2022/06/22 08:51:22;;;;;;;11.00;9.93;;;23.60;99.50;;;;;;4985862;28;21012;-62
2022/06/22 08:54:03;;;;;;;11.70;10.43;;;23.50;99.90;;;;;;4988755;28;20828;-63
2022/06/22 08:56:34;;;;;;;11.37;10.47;;;23.50;99.90;;;;;;4981395;28;20585;-71
2022/06/22 08:59:55;;;;;;;10.70;9.70;;;23.60;99.90;;;;;;4985441;28;20450;-71
2022/06/22 09:02:46;;;;;;;11.20;10.10;;;23.90;99.90;;;;;;4974232;28;20466;-71
2022/06/22 09:05:49;;;;;;;10.30;9.27;;;24.00;99.90;;;;;;4989715;28;20445;-69
2022/06/22 09:08:56;;;;;;;11.00;10.00;;;24.20;99.90;;;;;;4983283;28;20469;-65
2022/06/22 09:11:31;;;;;;;13.67;10.10;;;24.20;99.90;;;;;;4929408;29;20461;-65
2022/06/22 09:14:09;;;;;;;10.43;9.43;;;24.20;99.90;;;;;;4972534;28;20534;-65
2022/06/22 09:16:34;;;;;;;11.47;10.27;;;24.40;99.90;;;;;;4990834;28;20439;-67
2022/06/22 09:19:23;;;;;;;11.13;10.27;;;24.50;99.90;;;;;;4984556;28;20798;-68
2022/06/22 09:22:07;;;;;;;10.70;9.70;;;24.40;99.40;;;;;;4988732;28;20669;-66
2022/06/22 09:24:52;;;;;;;11.60;10.53;;;24.50;99.40;;;;;;4986959;28;20948;-66
2022/06/22 09:27:19;;;;;;;11.70;10.80;;;24.60;99.40;;;;;;4980844;28;21133;-59
2022/06/22 09:30:00;;;;;;;14.50;12.97;;;24.70;99.80;;;;;;4987516;28;20446;-67
2022/06/22 09:32:52;;;;;;;13.90;12.37;;;24.70;99.90;;;;;;4983849;28;20454;-66
2022/06/22 09:35:43;;;;;;;11.60;10.70;;;24.70;99.90;;;;;;4975227;28;20443;-67
2022/06/22 09:38:23;;;;;;;12.17;10.90;;;24.80;99.70;;;;;;4978298;28;20443;-70
2022/06/22 09:41:16;;;;;;;13.03;11.80;;;24.80;99.10;;;;;;4984450;28;20474;-71
2022/06/22 09:43:51;;;;;;;12.90;11.60;;;24.90;98.90;;;;;;4987654;28;20442;-66
2022/06/22 09:46:44;;;;;;;13.47;12.17;;;25.20;98.60;;;;;;4989105;28;20476;-66
2022/06/22 09:49:18;;;;;;;11.03;10.10;;;24.60;98.50;;;;;;4983376;28;20529;-69
2022/06/22 09:52:16;;;;;;;12.73;10.60;;;24.60;98.60;;;;;;4986129;28;20547;-72
2022/06/22 09:58:12;;;;;;;11.30;10.40;;;24.80;98.40;;;;;;4992215;28;20522;-65
2022/06/22 10:00:45;;;;;;;13.47;12.40;;;24.90;98.50;;;;;;4987421;28;20573;-68
2022/06/22 10:03:48;;;;;;;10.60;9.80;;;24.80;98.00;;;;;;4987392;28;20250;-69
2022/06/22 10:06:22;;;;;;;13.07;11.60;;;24.50;98.30;;;;;;4982757;28;20745;-72
2022/06/22 10:08:51;;;;;;;11.43;10.53;;;24.30;98.70;;;;;;4980367;28;20936;-65
2022/06/22 10:11:51;;;;;;;11.57;10.57;;;24.30;98.80;;;;;;4980837;28;20465;-63
2022/06/22 10:14:54;;;;;;;11.10;10.10;;;24.40;98.60;;;;;;4979653;28;20918;-60
2022/06/22 10:17:39;;;;;;;12.20;11.00;;;24.40;98.50;;;;;;4981370;28;20460;-61
2022/06/22 10:20:34;;;;;;;12.50;11.30;;;24.40;98.90;;;;;;4987969;28;20998;-61
2022/06/22 10:23:23;;;;;;;12.37;11.17;;;24.50;99.10;;;;;;4972416;28;20922;-61
2022/06/22 10:26:13;;;;;;;11.30;10.40;;;24.50;99.90;;;;;;4991737;28;21228;-66
2022/06/22 10:28:58;;;;;;;11.13;10.00;;;24.50;99.90;;;;;;4989703;28;20452;-69
2022/06/22 10:32:03;;;;;;;10.60;9.50;;;24.40;99.90;;;;;;4987468;28;20474;-68
2022/06/22 10:35:01;;;;;;;11.67;10.77;;;24.30;99.90;;;;;;4989037;28;20453;-58
2022/06/22 10:37:58;;;;;;;12.37;11.23;;;24.40;99.90;;;;;;4958616;28;20470;-58
2022/06/22 10:46:14;;;;;;;11.37;10.47;;;24.20;99.90;;;;;;4979597;28;20494;-58
2022/06/22 10:48:56;;;;;;;11.60;10.57;;;24.10;99.90;;;;;;4987914;28;20461;-57
2022/06/22 10:51:56;;;;;;;11.23;10.07;;;23.80;99.90;;;;;;4985327;28;20506;-58
2022/06/22 10:54:40;;;;;;;10.40;9.57;;;23.60;99.90;;;;;;4983855;28;20450;-57
2022/06/22 10:57:24;;;;;;;10.00;9.00;;;23.40;99.90;;;;;;4990398;28;20549;-60
2022/06/22 11:00:09;;;;;;;16.43;15.03;;;23.20;99.90;;;;;;4990146;28;20552;-60
2022/06/22 11:02:59;;;;;;;10.20;9.33;;;23.10;99.90;;;;;;4978482;28;20454;-58
2022/06/22 11:05:47;;;;;;;9.80;9.00;;;22.90;99.90;;;;;;4990092;28;20434;-58
2022/06/22 11:08:34;;;;;;;10.07;9.20;;;23.00;99.90;;;;;;4988641;28;20538;-57
2022/06/22 11:11:03;;;;;;;11.73;10.70;;;23.00;99.90;;;;;;4980633;28;20561;-55
2022/06/22 11:14:13;;;;;;;8.53;7.70;;;22.80;99.90;;;;;;4986800;28;20439;-58
2022/06/22 11:16:38;;;;;;;9.70;7.30;;;22.70;99.90;;;;;;4988653;28;20446;-56
2022/06/22 11:19:10;;;;;;;9.07;8.30;;;22.80;99.90;;;;;;4984468;28;20833;-65
2022/06/22 11:22:18;;;;;;;8.70;7.90;;;22.80;99.90;;;;;;4992058;28;20243;-65
2022/06/22 11:25:06;;;;;;;7.90;7.30;;;22.80;99.90;;;;;;4989218;28;20438;-67
2022/06/22 11:31:12;;;;;;;9.20;8.40;;;22.90;99.90;;;;;;4992209;28;20465;-63
2022/06/22 11:34:25;;;;;;;8.80;8.10;;;22.90;99.90;;;;;;4927416;29;20181;-63
2022/06/22 11:37:08;;;;;;;10.40;9.40;;;23.00;99.90;;;;;;4972361;28;20454;-62
2022/06/22 11:39:33;;;;;;;11.37;10.30;;;23.00;99.90;;;;;;4985614;28;20465;-62
2022/06/22 11:42:37;;;;;;;11.60;10.70;;;23.10;99.90;;;;;;4984422;28;20426;-62
2022/06/22 11:48:47;;;;;;;9.90;9.10;;;23.10;99.90;;;;;;4983396;28;20520;-62
2022/06/22 11:51:30;;;;;;;12.87;11.40;;;23.20;99.90;;;;;;4929958;29;20549;-62
2022/06/22 11:54:19;;;;;;;12.97;11.87;;;23.20;99.90;;;;;;4928943;29;21021;-59
2022/06/22 11:57:25;;;;;;;12.50;11.40;;;23.10;99.90;;;;;;4964917;28;20485;-65
2022/06/22 12:00:14;;;;;;;11.90;10.90;;;23.20;99.90;;;;;;4984784;28;20479;-66
2022/06/22 12:03:18;;;;;;;13.77;12.13;;;23.30;99.90;;;;;;4983213;28;20443;-66
2022/06/22 12:05:59;;;;;;;11.47;10.57;;;23.20;99.90;;;;;;4990863;28;20450;-63
2022/06/22 12:08:37;;;;;;;11.90;10.90;;;23.40;99.90;;;;;;4989567;28;20434;-66
2022/06/22 12:11:27;;;;;;;11.10;10.00;;;23.50;99.90;;;;;;4983504;28;20548;-64
2022/06/22 12:17:31;;;;;;;12.00;10.80;;;23.60;99.90;;;;;;4989290;28;20799;-68
2022/06/22 12:20:25;;;;;;;10.57;9.40;;;23.90;99.90;;;;;;4987651;28;20602;-63
2022/06/22 12:23:24;;;;;;;10.17;9.10;;;24.10;99.90;;;;;;4987438;28;20438;-67
2022/06/22 12:26:04;;;;;;;9.20;8.40;;;24.20;99.90;;;;;;4985975;28;20503;-66
2022/06/22 12:28:48;;;;;;;9.43;8.63;;;24.30;99.90;;;;;;4988720;28;20439;-62
2022/06/22 12:31:22;;;;;;;12.10;8.27;;;24.40;99.90;;;;;;4981249;28;20463;-63
2022/06/22 12:33:59;;;;;;;10.40;8.60;;;24.60;99.90;;;;;;4983961;28;20844;-64
2022/06/22 12:36:39;;;;;;;7.40;5.50;;;24.80;99.90;;;;;;4982282;28;20499;-68
2022/06/22 12:39:11;;;;;;;6.60;5.90;;;24.80;99.90;;;;;;4989153;28;20481;-67
2022/06/22 12:41:54;;;;;;;6.67;6.00;;;24.80;99.90;;;;;;4983393;28;20478;-67
2022/06/22 12:44:40;;;;;;;7.70;5.70;;;24.90;99.90;;;;;;4984356;28;20796;-65
2022/06/22 12:47:41;;;;;;;7.50;5.30;;;24.80;99.90;;;;;;5001953;28;20454;-65
2022/06/22 12:50:44;;;;;;;9.40;5.87;;;24.70;99.90;;;;;;4984898;28;20474;-67
2022/06/22 12:53:50;;;;;;;8.30;5.77;;;24.70;99.90;;;;;;4989305;28;20466;-65
2022/06/22 12:56:26;;;;;;;7.57;5.27;;;24.70;99.90;;;;;;4986130;28;20447;-64
2022/06/22 12:59:02;;;;;;;8.50;4.83;;;24.60;99.90;;;;;;4989013;28;20829;-63
2022/06/22 13:01:28;;;;;;;10.27;4.90;;;24.60;99.90;;;;;;4986867;28;20470;-66
2022/06/22 13:03:58;;;;;;;10.17;5.50;;;24.60;99.90;;;;;;4986040;28;20569;-68
2022/06/22 13:06:27;;;;;;;9.77;5.97;;;24.50;99.90;;;;;;4983424;28;20447;-62
2022/06/22 13:08:55;;;;;;;7.60;5.93;;;24.40;99.90;;;;;;4983642;28;20451;-62
2022/06/22 13:11:23;;;;;;;6.60;5.67;;;24.30;99.90;;;;;;4989109;28;20462;-62
2022/06/22 13:14:13;;;;;;;9.27;5.80;;;24.50;99.90;;;;;;4990571;28;20431;-62
2022/06/22 13:16:51;;;;;;;9.70;6.37;;;24.30;99.90;;;;;;4986846;28;20516;-62
2022/06/22 13:19:30;;;;;;;9.30;5.70;;;24.50;99.90;;;;;;4979270;28;20448;-62
2022/06/22 13:22:18;;;;;;;9.20;6.47;;;24.40;99.90;;;;;;4987406;28;20508;-63
2022/06/22 13:25:14;;;;;;;10.33;5.63;;;24.50;99.90;;;;;;4984190;28;20442;-61
2022/06/22 13:27:58;;;;;;;9.53;5.53;;;24.60;99.90;;;;;;4985258;28;20439;-62
2022/06/22 13:30:36;;;;;;;7.40;5.63;;;24.60;99.90;;;;;;4986150;28;20454;-62
2022/06/22 13:33:10;;;;;;;6.30;5.60;;;24.70;99.90;;;;;;4978569;28;20761;-62
2022/06/22 13:35:43;;;;;;;8.67;5.63;;;24.60;99.90;;;;;;4985223;28;20438;-62
2022/06/22 13:38:20;;;;;;;11.27;6.30;;;24.50;99.90;;;;;;4986970;28;20442;-62
2022/06/22 13:41:13;;;;;;;8.90;6.03;;;24.40;99.90;;;;;;4978476;28;20467;-62
2022/06/22 13:43:39;;;;;;;7.40;5.70;;;24.30;99.90;;;;;;4986307;28;20478;-61
2022/06/22 13:46:29;;;;;;;10.03;6.37;;;24.20;99.90;;;;;;4983090;28;20505;-62
2022/06/22 13:49:13;;;;;;;12.60;5.97;;;24.20;99.90;;;;;;4984782;28;20221;-62
2022/06/22 13:51:51;;;;;;;8.00;6.20;;;24.30;99.90;;;;;;4987658;28;21070;-62
2022/06/22 13:54:32;;;;;;;7.13;5.60;;;24.40;99.90;;;;;;4984528;28;20943;-62
2022/06/22 13:57:34;;;;;;;8.23;5.43;;;24.50;99.90;;;;;;4985179;28;20453;-62
2022/06/22 14:00:22;;;;;;;11.03;5.43;;;24.40;99.90;;;;;;4984739;28;20470;-62
2022/06/22 14:03:08;;;;;;;9.40;6.80;;;24.60;99.90;;;;;;4983063;28;21207;-62
2022/06/22 14:05:55;;;;;;;7.33;5.70;;;25.00;99.90;;;;;;4983464;28;20872;-62
2022/06/22 14:08:21;;;;;;;7.93;5.60;;;25.30;99.90;;;;;;4985213;28;20458;-62
2022/06/22 14:10:56;;;;;;;8.20;5.10;;;25.50;99.90;;;;;;4982550;28;20459;-62